Time;durP1;ratioP1;P1;durP2;ratioP2;P2;SDS_P1;SDS_P2;PMS_P1;PMS_P2;Temp;Humidity;BMP_temperature;BMP_pressure;BME280_temperature;BME280_humidity;BME280_pressure;Samples;Min_cycle;Max_cycle;Signal;HPM_P1;HPM_P2
2020/12/08 00:00:22;;;;;;;21.52;13.43;;;;;;;1.20;87.92;98773.34;5075043;28;20048;-76
2020/12/08 00:02:49;;;;;;;23.95;14.02;;;;;;;1.14;88.12;98778.88;5074628;28;20430;-77
2020/12/08 00:05:17;;;;;;;26.73;14.98;;;;;;;1.11;88.54;98781.63;5074655;28;20048;-76
2020/12/08 00:07:43;;;;;;;27.45;15.20;;;;;;;1.00;88.14;98758.44;5074708;28;20053;-76
2020/12/08 00:10:10;;;;;;;28.25;15.10;;;;;;;1.01;88.38;98770.66;5074635;28;20053;-76
2020/12/08 00:12:36;;;;;;;22.63;13.68;;;;;;;1.03;88.37;98779.34;5073854;28;20060;-77
2020/12/08 00:15:05;;;;;;;28.60;15.23;;;;;;;0.80;88.50;98745.28;5075002;28;20052;-76
2020/12/08 00:17:32;;;;;;;26.40;14.35;;;;;;;0.95;88.92;98769.16;5074675;28;20402;-77
2020/12/08 00:19:58;;;;;;;28.85;15.43;;;;;;;1.00;88.55;98780.31;5074891;28;20056;-76
2020/12/08 00:22:25;;;;;;;29.23;14.85;;;;;;;0.96;88.58;98772.66;5074801;28;20044;-77
2020/12/08 00:24:51;;;;;;;25.33;14.10;;;;;;;0.86;88.88;98770.41;5074577;28;20501;-76
2020/12/08 00:27:17;;;;;;;26.73;16.23;;;;;;;0.86;89.01;98772.19;5073639;28;20057;-76
2020/12/08 00:29:44;;;;;;;26.25;14.43;;;;;;;0.89;88.78;98774.69;5074749;28;20067;-77
2020/12/08 00:32:10;;;;;;;29.95;15.48;;;;;;;0.81;88.92;98772.38;5077626;28;20426;-76
2020/12/08 00:34:37;;;;;;;26.73;14.65;;;;;;;0.77;88.55;98763.78;5078655;28;20101;-77
2020/12/08 00:37:06;;;;;;;31.58;16.65;;;;;;;0.79;89.35;98771.59;5078423;28;20449;-77
2020/12/08 00:39:33;;;;;;;26.95;15.07;;;;;;;0.75;89.09;98770.88;5078715;28;20052;-75
2020/12/08 00:42:00;;;;;;;28.20;15.50;;;;;;;0.71;88.87;98760.56;5078352;28;20048;-77
2020/12/08 00:44:26;;;;;;;25.70;15.40;;;;;;;0.65;88.85;98770.41;5077270;28;20052;-76
2020/12/08 00:46:53;;;;;;;27.95;16.30;;;;;;;0.66;88.96;98759.00;5078049;28;20122;-76
2020/12/08 00:49:20;;;;;;;28.70;16.20;;;;;;;0.61;89.04;98765.38;5078418;28;20052;-77
2020/12/08 00:51:46;;;;;;;28.00;16.58;;;;;;;0.59;89.48;98757.53;5078068;28;20457;-75
2020/12/08 00:54:12;;;;;;;26.25;14.93;;;;;;;0.46;89.32;98744.09;5078327;28;20430;-75
2020/12/08 00:56:40;;;;;;;26.63;15.27;;;;;;;0.47;89.05;98750.19;5078157;28;20052;-77
2020/12/08 00:59:06;;;;;;;28.20;16.48;;;;;;;0.50;88.94;98756.16;5077316;28;20052;-76
2020/12/08 01:01:32;;;;;;;27.77;15.23;;;;;;;0.43;89.36;98756.50;5077443;28;20075;-77
2020/12/08 01:03:59;;;;;;;32.53;15.90;;;;;;;0.40;89.85;98762.72;5077953;28;20346;-76
2020/12/08 01:06:25;;;;;;;31.65;16.35;;;;;;;0.33;89.83;98762.13;5078337;28;20044;-76
2020/12/08 01:08:51;;;;;;;27.95;15.73;;;;;;;0.33;89.25;98759.50;5078157;28;20052;-76
2020/12/08 01:11:17;;;;;;;27.08;15.05;;;;;;;0.26;89.30;98760.66;5077997;28;20055;-75
2020/12/08 01:13:43;;;;;;;28.25;15.65;;;;;;;-0.01;89.23;98732.00;5077843;28;20055;-76
2020/12/08 01:16:10;;;;;;;26.98;15.05;;;;;;;0.17;89.72;98763.69;5077642;28;20060;-76
2020/12/08 01:18:36;;;;;;;30.42;16.23;;;;;;;0.13;89.71;98755.91;5078006;28;20053;-75
2020/12/08 01:21:03;;;;;;;29.35;15.55;;;;;;;0.17;89.73;98767.16;5077032;28;20049;-79
2020/12/08 01:23:31;;;;;;;28.55;15.55;;;;;;;0.12;89.68;98774.38;5077765;28;20059;-77
2020/12/08 01:25:57;;;;;;;29.52;14.85;;;;;;;0.10;89.63;98774.41;5078161;28;20079;-76
2020/12/08 01:28:23;;;;;;;28.15;15.05;;;;;;;0.08;89.68;98767.53;5077979;28;20070;-75
2020/12/08 01:30:49;;;;;;;28.80;15.80;;;;;;;-0.02;90.25;98767.03;5077644;28;20830;-76
2020/12/08 01:33:16;;;;;;;30.90;16.20;;;;;;;-0.08;90.05;98764.66;5078016;28;20434;-77
2020/12/08 01:35:43;;;;;;;30.45;16.67;;;;;;;-0.13;90.16;98759.59;5078081;28;20048;-76
2020/12/08 01:38:10;;;;;;;26.63;15.60;;;;;;;-0.03;90.03;98776.69;5078094;28;20048;-77
2020/12/08 01:40:36;;;;;;;32.53;15.60;;;;;;;-0.12;89.54;98770.97;5077586;28;20052;-76
2020/12/08 01:43:03;;;;;;;27.95;16.23;;;;;;;-0.19;90.13;98763.31;5076684;28;20055;-77
2020/12/08 01:45:30;;;;;;;28.73;16.10;;;;;;;-0.21;89.99;98767.75;5077516;28;20067;-77
2020/12/08 01:47:57;;;;;;;27.35;15.50;;;;;;;-0.25;90.18;98773.19;5077378;28;20101;-75
2020/12/08 01:50:23;;;;;;;27.95;15.32;;;;;;;-0.33;89.70;98760.41;5076395;28;20127;-75
2020/12/08 01:52:50;;;;;;;26.60;15.38;;;;;;;-0.36;89.77;98757.88;5077602;28;20055;-76
2020/12/08 01:55:16;;;;;;;27.63;14.65;;;;;;;-0.34;90.17;98777.00;5077696;28;20055;-76
2020/12/08 01:57:43;;;;;;;25.70;15.00;;;;;;;-0.46;89.76;98760.88;5075926;28;20044;-75
2020/12/08 02:00:09;;;;;;;28.73;15.65;;;;;;;-0.36;89.98;98773.59;5077692;28;20123;-76
2020/12/08 02:02:35;;;;;;;23.92;14.43;;;;;;;-0.34;89.63;98775.25;5076473;28;20049;-77
2020/12/08 02:05:03;;;;;;;27.50;14.82;;;;;;;-0.40;90.37;98766.78;5075866;28;20067;-77
2020/12/08 02:07:29;;;;;;;27.30;14.75;;;;;;;-0.40;89.50;98769.41;5076643;28;20453;-76
2020/12/08 02:09:56;;;;;;;29.05;15.10;;;;;;;-0.46;90.09;98771.34;5076846;28;20049;-77
2020/12/08 02:12:23;;;;;;;30.60;15.93;;;;;;;-0.43;90.48;98773.00;5076730;28;20382;-77
2020/12/08 02:14:49;;;;;;;28.30;15.75;;;;;;;-0.51;90.21;98760.19;5076545;28;20056;-76
2020/12/08 02:17:15;;;;;;;25.02;13.70;;;;;;;-0.44;90.14;98769.50;5076710;28;20384;-77
2020/12/08 02:19:44;;;;;;;25.42;15.27;;;;;;;-0.49;90.92;98766.22;5076479;28;20052;-75
2020/12/08 02:22:11;;;;;;;31.48;16.13;;;;;;;-0.44;90.23;98776.53;5076883;28;20048;-77
2020/12/08 02:24:37;;;;;;;29.42;15.82;;;;;;;-0.42;90.27;98775.53;5076666;28;20052;-77
2020/12/08 02:27:04;;;;;;;28.83;15.07;;;;;;;-0.50;90.08;98768.91;5076601;28;20091;-77
2020/12/08 02:29:30;;;;;;;26.45;15.10;;;;;;;-0.52;90.12;98779.44;5076713;28;20381;-76
2020/12/08 02:31:57;;;;;;;30.50;15.10;;;;;;;-0.51;90.39;98786.38;5076419;28;20052;-76
2020/12/08 02:34:23;;;;;;;26.35;14.48;;;;;;;-0.51;90.17;98785.53;5076355;28;20132;-77
2020/12/08 02:36:56;;;;;;;29.83;14.15;;;;;;;-0.56;89.62;98785.69;5076191;28;20056;-76
2020/12/08 02:39:23;;;;;;;25.27;14.30;;;;;;;-0.64;90.35;98775.53;5075315;28;20084;-77
2020/12/08 02:41:49;;;;;;;27.88;14.50;;;;;;;-0.61;90.02;98780.63;5075967;28;20070;-76
2020/12/08 02:44:16;;;;;;;30.45;15.63;;;;;;;-0.57;90.91;98791.84;5075915;28;20118;-77
2020/12/08 02:46:43;;;;;;;30.52;15.20;;;;;;;-0.57;90.44;98784.88;5076070;28;20052;-77
2020/12/08 02:49:09;;;;;;;29.05;15.25;;;;;;;-0.49;90.85;98792.41;5075719;28;20048;-77
2020/12/08 02:51:37;;;;;;;26.85;15.20;;;;;;;-0.45;90.71;98791.41;5075982;28;20117;-77
2020/12/08 02:54:03;;;;;;;25.60;14.43;;;;;;;-0.42;90.56;98800.91;5074785;28;20052;-76
2020/12/08 02:56:29;;;;;;;29.23;15.73;;;;;;;-0.47;91.07;98788.00;5075948;28;20057;-76
2020/12/08 02:58:56;;;;;;;26.65;14.98;;;;;;;-0.38;90.22;98799.03;5075762;28;20349;-76
2020/12/08 03:01:22;;;;;;;31.17;16.60;;;;;;;-0.41;90.62;98792.13;5075956;28;20167;-77
2020/12/08 03:03:49;;;;;;;31.55;17.02;;;;;;;-0.39;91.16;98794.72;5075726;28;20060;-77
2020/12/08 03:06:16;;;;;;;26.42;15.80;;;;;;;-0.40;90.65;98801.72;5076027;28;20049;-76
2020/12/08 03:08:42;;;;;;;24.17;14.57;;;;;;;-0.40;90.82;98800.88;5075798;28;20048;-76
2020/12/08 03:11:08;;;;;;;28.17;16.33;;;;;;;-0.49;90.71;98792.41;5076071;28;20053;-77
2020/12/08 03:13:34;;;;;;;35.78;17.48;;;;;;;-0.47;90.65;98802.84;5075577;28;20060;-76
2020/12/08 03:16:00;;;;;;;35.08;17.55;;;;;;;-0.55;90.47;98779.53;5057893;28;20078;-79
2020/12/08 03:18:27;;;;;;;34.65;18.45;;;;;;;-0.44;90.98;98792.28;5074323;28;20053;-75
2020/12/08 03:20:58;;;;;;;29.48;18.45;;;;;;;-0.50;90.61;98780.22;5075562;28;20059;-76
2020/12/08 03:23:24;;;;;;;36.53;19.10;;;;;;;-0.42;90.73;98783.41;5075530;28;20044;-77
2020/12/08 03:25:50;;;;;;;35.75;19.05;;;;;;;-0.42;90.71;98785.19;5075646;28;20052;-77
2020/12/08 03:28:17;;;;;;;38.20;19.73;;;;;;;-0.48;90.82;98786.25;5074096;28;20067;-77
2020/12/08 03:30:43;;;;;;;33.25;19.02;;;;;;;-0.43;90.40;98796.59;5074553;28;20053;-76
2020/12/08 03:33:09;;;;;;;37.25;21.40;;;;;;;-0.47;90.54;98788.00;5074024;28;20044;-77
2020/12/08 03:35:35;;;;;;;39.15;23.13;;;;;;;-0.47;90.47;98787.13;5075335;28;20052;-76
2020/12/08 03:38:02;;;;;;;37.15;20.52;;;;;;;-0.50;90.25;98790.72;5075376;28;20106;-76
2020/12/08 03:40:28;;;;;;;40.72;21.73;;;;;;;-0.52;90.46;98789.94;5075335;28;20049;-77
2020/12/08 03:42:54;;;;;;;39.45;21.90;;;;;;;-0.48;90.84;98801.16;5075022;28;20086;-76
2020/12/08 03:45:20;;;;;;;39.05;22.00;;;;;;;-0.52;90.45;98794.31;5075063;28;20052;-77
2020/12/08 03:47:46;;;;;;;38.67;22.00;;;;;;;-0.53;90.66;98797.84;5057461;28;20044;-78
2020/12/08 03:50:13;;;;;;;46.13;25.67;;;;;;;-0.51;91.21;98801.25;5074864;28;20049;-77
2020/12/08 03:52:39;;;;;;;49.75;27.35;;;;;;;-0.51;91.12;98785.53;5074083;28;20053;-76
2020/12/08 03:55:05;;;;;;;42.47;24.73;;;;;;;-0.49;91.10;98787.19;5075065;28;20052;-77
2020/12/08 03:57:31;;;;;;;47.00;24.63;;;;;;;-0.60;91.24;98760.53;5057285;28;20492;-76
2020/12/08 03:59:58;;;;;;;46.03;24.90;;;;;;;-0.49;91.32;98784.56;5074770;28;20052;-77
2020/12/08 04:02:24;;;;;;;46.38;25.85;;;;;;;-0.51;90.75;98790.75;5074170;28;20052;-77
2020/12/08 04:04:50;;;;;;;45.25;24.85;;;;;;;-0.52;91.25;98789.06;5075568;28;20049;-76
2020/12/08 04:07:16;;;;;;;51.17;26.63;;;;;;;-0.50;90.71;98792.50;5081738;28;20405;-75
2020/12/08 04:09:42;;;;;;;48.38;25.33;;;;;;;-0.52;90.68;98791.69;5081432;28;20055;-78
2020/12/08 04:12:09;;;;;;;46.78;26.70;;;;;;;-0.56;91.11;98790.94;5080564;28;20048;-76
2020/12/08 04:14:35;;;;;;;45.78;25.83;;;;;;;-0.56;90.83;98801.44;5081359;28;20044;-76
2020/12/08 04:17:02;;;;;;;44.22;25.75;;;;;;;-0.59;90.83;98794.53;5081456;28;20052;-76
2020/12/08 04:19:28;;;;;;;50.10;28.08;;;;;;;-0.58;90.72;98791.03;5081310;28;20316;-77
2020/12/08 04:22:00;;;;;;;48.60;27.55;;;;;;;-0.58;90.24;98788.41;5081501;28;20059;-78
2020/12/08 04:24:26;;;;;;;46.95;26.70;;;;;;;-0.62;91.08;98797.28;5081282;28;20354;-75
2020/12/08 04:26:52;;;;;;;53.08;26.30;;;;;;;-0.66;91.35;98789.59;5081347;28;20422;-76
2020/12/08 04:29:19;;;;;;;49.60;27.05;;;;;;;-0.61;91.61;98801.59;5080148;28;20465;-77
2020/12/08 04:31:45;;;;;;;49.50;26.98;;;;;;;-0.53;91.40;98811.81;5080393;28;20048;-77
2020/12/08 04:34:12;;;;;;;46.10;26.20;;;;;;;-0.56;90.64;98801.44;5081157;28;20446;-77
2020/12/08 04:36:38;;;;;;;44.83;24.15;;;;;;;-0.65;91.12;98792.13;5081466;28;20102;-77
2020/12/08 04:39:04;;;;;;;38.40;21.38;;;;;;;-0.50;91.02;98811.69;5081281;28;20044;-76
2020/12/08 04:41:30;;;;;;;37.30;20.60;;;;;;;-0.44;92.43;98808.84;5081199;28;20354;-77
2020/12/08 04:43:56;;;;;;;37.50;20.10;;;;;;;-0.40;92.10;98804.31;5081188;28;20048;-76
2020/12/08 04:46:26;;;;;;;38.90;20.42;;;;;;;-0.37;92.19;98806.84;5081056;28;20369;-77
2020/12/08 04:48:52;;;;;;;36.67;19.13;;;;;;;-0.33;91.61;98804.97;5081033;28;20056;-78
2020/12/08 04:51:19;;;;;;;36.00;18.42;;;;;;;-0.33;92.03;98812.84;5080153;28;20053;-77
2020/12/08 04:53:51;;;;;;;32.88;17.48;;;;;;;-0.34;91.57;98809.34;5081265;28;20049;-77
2020/12/08 04:56:18;;;;;;;35.03;18.33;;;;;;;-0.30;91.84;98804.84;5081057;28;20098;-76
2020/12/08 04:58:44;;;;;;;31.75;19.10;;;;;;;-0.29;91.55;98814.41;5081067;28;20051;-76
2020/12/08 05:01:23;;;;;;;31.75;18.27;;;;;;;-0.34;91.50;98806.72;5076544;28;20059;-77
2020/12/08 05:04:00;;;;;;;31.85;18.25;;;;;;;-0.49;91.72;98802.06;5079810;28;20048;-78
2020/12/08 05:06:30;;;;;;;32.72;18.48;;;;;;;-0.38;91.23;98812.97;5080895;28;20052;-77
2020/12/08 05:09:14;;;;;;;30.90;18.17;;;;;;;-0.31;91.11;98818.88;5081305;28;20074;-78
2020/12/08 05:11:40;;;;;;;33.50;18.08;;;;;;;-0.36;90.92;98807.69;5080697;28;20102;-77
2020/12/08 05:14:06;;;;;;;31.92;18.35;;;;;;;-0.39;91.33;98810.44;5080781;28;20101;-77
2020/12/08 05:16:33;;;;;;;28.90;17.25;;;;;;;-0.51;90.93;98798.63;5066441;28;20060;-79
2020/12/08 05:19:10;;;;;;;32.65;16.88;;;;;;;-0.48;91.69;98806.38;5057743;28;20465;-77
2020/12/08 05:21:51;;;;;;;36.85;17.73;;;;;;;-0.51;91.58;98816.97;5057868;28;20072;-77
2020/12/08 05:24:24;;;;;;;32.03;17.65;;;;;;;-0.53;91.41;98809.19;5070160;28;20049;-77
2020/12/08 05:27:01;;;;;;;32.53;18.63;;;;;;;-0.55;91.54;98811.00;5077728;28;20052;-77
2020/12/08 05:29:29;;;;;;;30.55;17.65;;;;;;;-0.51;92.03;98815.22;5077686;28;20049;-78
2020/12/08 05:31:55;;;;;;;31.38;17.73;;;;;;;-0.49;91.17;98820.41;5076973;28;20430;-77
2020/12/08 05:34:24;;;;;;;32.17;16.55;;;;;;;-0.53;91.09;98814.44;5076384;28;20436;-77
2020/12/08 05:36:52;;;;;;;29.65;18.30;;;;;;;-0.67;91.37;98795.75;5077275;28;20048;-77
2020/12/08 05:39:21;;;;;;;32.03;17.00;;;;;;;-0.52;90.82;98807.41;5077528;28;20044;-76
2020/12/08 05:41:49;;;;;;;31.23;17.75;;;;;;;-0.46;91.02;98815.91;5077448;28;20056;-77
2020/12/08 05:44:23;;;;;;;31.58;18.17;;;;;;;-0.50;91.46;98819.53;5077098;28;20738;-77
2020/12/08 05:46:51;;;;;;;37.38;18.45;;;;;;;-0.47;90.98;98823.81;5077160;28;20057;-77
2020/12/08 05:49:18;;;;;;;34.13;18.33;;;;;;;-0.59;91.65;98814.66;5077454;28;20210;-77
2020/12/08 05:51:50;;;;;;;35.85;19.23;;;;;;;-0.53;91.55;98824.91;5077149;28;20328;-77
2020/12/08 05:54:20;;;;;;;36.60;19.27;;;;;;;-0.70;91.20;98800.16;5077143;28;20052;-76
2020/12/08 05:56:47;;;;;;;35.10;18.20;;;;;;;-0.57;91.40;98815.44;5076964;28;20059;-76
2020/12/08 05:59:26;;;;;;;34.92;18.70;;;;;;;-0.54;91.33;98828.44;5076923;28;20059;-76
2020/12/08 06:01:53;;;;;;;32.72;18.33;;;;;;;-0.54;91.01;98825.84;5077489;28;20044;-77
2020/12/08 06:04:19;;;;;;;31.15;18.40;;;;;;;-0.54;90.88;98831.06;5077463;28;20064;-77
2020/12/08 06:06:53;;;;;;;33.70;17.73;;;;;;;-0.54;91.46;98841.56;5077203;28;20049;-76
2020/12/08 06:09:30;;;;;;;33.10;18.13;;;;;;;-0.55;91.14;98837.19;5088888;28;20062;-76
2020/12/08 06:11:56;;;;;;;31.88;18.52;;;;;;;-0.60;91.46;98823.44;5094553;28;20379;-74
2020/12/08 06:14:34;;;;;;;32.22;18.67;;;;;;;-0.56;91.88;98839.00;5094320;28;20036;-76
2020/12/08 06:17:02;;;;;;;35.00;18.63;;;;;;;-0.60;91.25;98833.91;5090183;28;20055;-77
2020/12/08 06:19:29;;;;;;;32.72;18.30;;;;;;;-0.62;91.08;98828.72;5077380;28;20059;-76
2020/12/08 06:21:55;;;;;;;33.85;18.83;;;;;;;-0.64;92.00;98834.94;5076730;28;20102;-76
2020/12/08 06:24:21;;;;;;;32.25;17.95;;;;;;;-0.62;91.87;98836.59;5077095;28;20053;-76
2020/12/08 06:26:47;;;;;;;30.42;17.90;;;;;;;-0.66;91.54;98837.59;5066717;28;20442;-76
2020/12/08 06:29:13;;;;;;;33.20;18.38;;;;;;;-0.67;91.68;98845.53;5065487;28;20103;-75
2020/12/08 06:31:44;;;;;;;33.28;18.23;;;;;;;-0.70;91.76;98851.75;5057434;28;20088;-78
2020/12/08 06:34:22;;;;;;;31.60;17.85;;;;;;;-0.74;91.37;98845.75;5065279;28;20045;-75
2020/12/08 06:36:48;;;;;;;31.73;18.48;;;;;;;-0.69;91.69;98851.66;5076268;28;20394;-79
2020/12/08 06:39:14;;;;;;;30.65;17.75;;;;;;;-0.77;91.91;98852.88;5076657;28;20062;-80
2020/12/08 06:41:42;;;;;;;32.85;18.50;;;;;;;-0.78;91.81;98852.00;5076171;28;20052;-75
2020/12/08 06:44:18;;;;;;;32.45;18.45;;;;;;;-0.84;91.69;98844.34;5075257;28;20045;-79
2020/12/08 06:46:58;;;;;;;26.65;16.52;;;;;;;-0.77;90.96;98858.94;5074409;28;20056;-79
2020/12/08 06:49:27;;;;;;;27.85;16.13;;;;;;;-0.84;91.21;98857.47;5072797;28;20056;-77
2020/12/08 06:51:57;;;;;;;33.10;17.77;;;;;;;-0.85;91.57;98861.00;5066973;28;20078;-76
2020/12/08 06:54:24;;;;;;;35.00;17.42;;;;;;;-0.92;91.26;98855.13;5076207;28;20127;-78
2020/12/08 06:56:59;;;;;;;32.97;18.75;;;;;;;-0.93;90.97;98853.38;5075581;28;20052;-77
2020/12/08 06:59:27;;;;;;;32.67;17.75;;;;;;;-0.86;90.93;98864.53;5068753;28;20047;-75
2020/12/08 07:01:54;;;;;;;32.53;18.17;;;;;;;-0.84;91.41;98873.16;5074928;28;20044;-75
2020/12/08 07:04:22;;;;;;;36.45;19.27;;;;;;;-0.91;91.11;98872.53;5075974;28;20406;-76
2020/12/08 07:06:50;;;;;;;30.50;17.83;;;;;;;-0.94;91.54;98877.88;5074528;28;20056;-79
2020/12/08 07:09:16;;;;;;;31.80;17.30;;;;;;;-0.91;91.92;98882.16;5072062;28;20053;-80
2020/12/08 07:11:44;;;;;;;33.50;17.77;;;;;;;-0.94;91.46;98879.66;5074050;28;20430;-77
2020/12/08 07:14:10;;;;;;;31.55;17.73;;;;;;;-1.00;91.51;98868.47;5064578;28;20061;-76
2020/12/08 07:16:37;;;;;;;35.45;18.63;;;;;;;-0.97;91.23;98873.59;5075409;28;20051;-77
2020/12/08 07:19:07;;;;;;;31.88;18.48;;;;;;;-0.97;91.67;98878.84;5075975;28;20489;-81
2020/12/08 07:21:34;;;;;;;36.00;18.27;;;;;;;-1.11;91.49;98865.34;5074274;28;20053;-79
2020/12/08 07:24:09;;;;;;;29.90;18.33;;;;;;;-0.97;91.82;98896.31;5075580;28;20076;-77
2020/12/08 07:26:37;;;;;;;29.30;18.05;;;;;;;-1.04;91.47;98886.97;5074858;28;20056;-74
2020/12/08 07:29:05;;;;;;;32.42;18.92;;;;;;;-0.98;91.50;98898.06;5073757;28;20079;-78
2020/12/08 07:31:31;;;;;;;33.63;18.45;;;;;;;-0.99;91.13;98890.25;5074555;28;20106;-79
2020/12/08 07:34:01;;;;;;;31.30;18.48;;;;;;;-0.89;91.40;98902.16;5073242;28;20044;-78
2020/12/08 07:36:32;;;;;;;32.55;17.88;;;;;;;-0.88;90.66;98901.25;5072444;28;20642;-79
2020/12/08 07:39:03;;;;;;;36.17;18.27;;;;;;;-0.92;91.41;98883.94;5074484;28;20052;-78
2020/12/08 07:41:31;;;;;;;32.08;18.40;;;;;;;-0.80;90.95;98906.22;5072269;28;20114;-80
2020/12/08 07:43:59;;;;;;;31.80;18.25;;;;;;;-0.78;91.49;98903.53;5072356;28;20056;-76
2020/12/08 07:46:30;;;;;;;34.67;18.55;;;;;;;-0.75;90.98;98908.69;5073301;28;20044;-79
2020/12/08 07:49:07;;;;;;;35.80;20.90;;;;;;;-0.79;91.27;98907.94;5073313;28;20101;-79
2020/12/08 07:51:36;;;;;;;35.42;19.42;;;;;;;-0.74;91.72;98910.38;5072609;28;20079;-79
2020/12/08 07:54:05;;;;;;;37.95;20.92;;;;;;;-0.75;91.80;98885.97;5074357;28;20084;-78
2020/12/08 07:56:36;;;;;;;36.58;20.98;;;;;;;-0.75;91.62;98904.31;5057691;28;20052;-79
2020/12/08 07:59:05;;;;;;;;;;;;;;;-0.64;91.67;98910.91;5075914;28;20052;-79
2020/12/08 08:01:42;;;;;;;34.35;19.10;;;;;;;-0.60;91.86;98902.91;5074689;28;19924;-78
2020/12/08 08:04:09;;;;;;;37.70;20.92;;;;;;;-0.50;92.05;98907.81;5073705;28;20131;-78
2020/12/08 08:06:36;;;;;;;35.40;20.83;;;;;;;-0.46;91.34;98906.78;5074315;28;20060;-79
2020/12/08 08:09:06;;;;;;;34.38;20.55;;;;;;;-0.45;91.45;98908.50;5072562;28;20044;-78
2020/12/08 08:11:34;;;;;;;38.63;19.77;;;;;;;-0.46;91.34;98910.28;5073581;28;20075;-78
2020/12/08 08:14:00;;;;;;;38.53;21.02;;;;;;;-0.45;91.79;98906.75;5074802;28;20072;-79
2020/12/08 08:16:26;;;;;;;35.40;20.80;;;;;;;-0.38;92.10;98911.75;5075089;28;20063;-78
2020/12/08 08:18:53;;;;;;;40.05;21.95;;;;;;;-0.30;92.06;98920.19;5075130;28;20506;-78
2020/12/08 08:21:19;;;;;;;40.45;23.42;;;;;;;-0.24;91.91;98919.97;5075566;28;20053;-78
2020/12/08 08:23:46;;;;;;;39.15;22.35;;;;;;;-0.07;92.54;98924.59;5075458;28;20327;-81
2020/12/08 08:26:14;;;;;;;38.00;22.27;;;;;;;-0.04;92.59;98921.00;5074916;28;20373;-78
2020/12/08 08:28:41;;;;;;;38.22;22.33;;;;;;;-0.01;92.51;98919.13;5074386;28;20052;-79
2020/12/08 08:31:07;;;;;;;36.28;21.00;;;;;;;0.13;92.21;98926.47;5075179;28;20101;-79
2020/12/08 08:33:34;;;;;;;42.95;22.27;;;;;;;0.21;92.55;98927.97;5074810;28;20076;-80
2020/12/08 08:36:00;;;;;;;41.95;22.98;;;;;;;0.27;92.32;98932.94;5075695;28;20106;-78
2020/12/08 08:38:27;;;;;;;39.42;22.25;;;;;;;0.32;92.50;98931.00;5076039;28;20431;-81
2020/12/08 08:40:54;;;;;;;37.40;22.55;;;;;;;0.37;92.67;98926.44;5077998;28;20049;-78
2020/12/08 08:43:21;;;;;;;34.88;22.33;;;;;;;0.44;92.56;98915.72;5060488;28;20434;-78
2020/12/08 08:45:49;;;;;;;34.83;22.25;;;;;;;0.60;92.32;98932.53;5076503;28;20059;-79
2020/12/08 08:48:16;;;;;;;37.35;22.35;;;;;;;0.59;92.54;98924.75;5075023;28;20136;-78
2020/12/08 08:50:42;;;;;;;35.45;21.35;;;;;;;0.54;91.97;98898.66;5075574;28;20052;-78
2020/12/08 08:53:09;;;;;;;37.72;21.95;;;;;;;0.72;92.06;98923.34;5077812;28;20075;-79
2020/12/08 08:55:35;;;;;;;39.15;22.95;;;;;;;0.60;92.10;98919.41;5079256;28;20052;-78
2020/12/08 08:58:12;;;;;;;38.20;22.42;;;;;;;0.82;92.22;98926.47;5078466;28;20056;-77
2020/12/08 09:00:38;;;;;;;34.58;21.85;;;;;;;0.87;91.98;98923.63;5078567;28;20102;-78
2020/12/08 09:03:06;;;;;;;35.70;22.02;;;;;;;0.82;91.79;98905.44;5078156;28;20133;-78
2020/12/08 09:05:33;;;;;;;38.42;22.50;;;;;;;0.93;91.92;98929.47;5078313;28;20144;-78
2020/12/08 09:08:00;;;;;;;36.63;22.45;;;;;;;0.89;91.96;98914.78;5077197;28;20056;-78
2020/12/08 09:10:26;;;;;;;33.78;21.65;;;;;;;1.00;91.85;98929.22;5077959;28;20052;-78
2020/12/08 09:12:52;;;;;;;36.03;21.92;;;;;;;1.01;91.83;98926.53;5077698;28;20052;-78
2020/12/08 09:15:19;;;;;;;37.72;23.00;;;;;;;1.12;91.78;98936.59;5077818;28;20071;-78
2020/12/08 09:17:46;;;;;;;35.55;21.83;;;;;;;1.12;91.65;98928.72;5060859;28;20044;-79
2020/12/08 09:20:12;;;;;;;32.53;21.85;;;;;;;1.30;91.24;98944.66;5078152;28;20063;-78
2020/12/08 09:22:38;;;;;;;33.55;21.30;;;;;;;1.27;90.97;98927.22;5078179;28;20067;-79
2020/12/08 09:25:04;;;;;;;33.55;21.92;;;;;;;1.32;91.05;98927.03;5060469;28;20139;-79
2020/12/08 09:27:31;;;;;;;36.13;20.92;;;;;;;1.48;90.84;98945.63;5078364;28;20044;-79
2020/12/08 09:29:57;;;;;;;36.08;22.40;;;;;;;1.49;90.92;98942.91;5079048;28;20434;-79
2020/12/08 09:32:25;;;;;;;34.85;22.08;;;;;;;1.35;90.58;98917.22;5076966;28;20059;-79
2020/12/08 09:34:51;;;;;;;30.13;20.60;;;;;;;1.54;90.41;98944.50;5077859;28;20095;-79
2020/12/08 09:37:18;;;;;;;33.88;20.73;;;;;;;1.56;90.85;98947.91;5082567;28;20045;-79
2020/12/08 09:39:44;;;;;;;36.47;21.80;;;;;;;1.66;90.09;98949.22;5084601;28;20079;-78
2020/12/08 09:42:10;;;;;;;35.05;21.17;;;;;;;1.69;90.22;98946.44;5082220;28;20052;-79
2020/12/08 09:44:37;;;;;;;32.03;20.20;;;;;;;1.73;90.24;98949.78;5079762;28;20098;-79
2020/12/08 09:47:03;;;;;;;37.13;22.45;;;;;;;1.71;90.03;98941.13;5045746;28;20045;-80
2020/12/08 09:49:29;;;;;;;30.80;21.08;;;;;;;1.84;89.59;98944.06;5080295;28;20067;-82
2020/12/08 09:51:55;;;;;;;33.38;20.30;;;;;;;1.85;89.31;98943.16;5079665;28;20063;-81
2020/12/08 09:54:21;;;;;;;36.95;21.27;;;;;;;1.85;89.07;98935.25;5077882;28;20060;-79
2020/12/08 09:56:48;;;;;;;40.67;21.13;;;;;;;1.86;89.00;98934.34;5078760;28;20060;-80
2020/12/08 09:59:14;;;;;;;28.73;19.60;;;;;;;1.82;89.06;98922.22;5078809;28;20053;-78
2020/12/08 10:01:40;;;;;;;30.40;20.70;;;;;;;2.02;88.96;98961.66;5077554;28;20114;-79
2020/12/08 10:04:08;;;;;;;30.08;21.10;;;;;;;1.99;88.57;98943.38;5080563;28;20052;-79
2020/12/08 10:06:36;;;;;;;32.42;19.50;;;;;;;2.08;88.81;98957.03;5081596;28;20059;-80
2020/12/08 10:09:03;;;;;;;31.50;20.23;;;;;;;2.18;88.82;98958.31;5079413;28;20074;-79
2020/12/08 10:11:29;;;;;;;28.98;19.05;;;;;;;2.21;88.46;98959.97;5078008;28;20052;-80
2020/12/08 10:13:55;;;;;;;29.45;19.13;;;;;;;2.33;88.08;98953.28;5079171;28;20067;-80
2020/12/08 10:16:24;;;;;;;29.83;19.30;;;;;;;2.49;87.91;98956.91;5078081;28;20098;-84
2020/12/08 10:18:51;;;;;;;26.67;18.67;;;;;;;2.62;86.29;98958.97;5078398;28;20056;-84
2020/12/08 10:21:24;;;;;;;27.50;17.83;;;;;;;2.68;85.74;98959.50;5078280;28;20054;-79
2020/12/08 10:23:51;;;;;;;29.05;18.48;;;;;;;2.77;86.35;98960.84;5076681;28;20092;-79
2020/12/08 10:26:22;;;;;;;25.73;17.65;;;;;;;2.85;86.28;98955.22;5076445;28;20048;-81
2020/12/08 10:28:49;;;;;;;23.47;15.80;;;;;;;2.85;85.15;98945.53;5075426;28;20122;-81
2020/12/08 10:31:18;;;;;;;21.85;15.93;;;;;;;3.05;84.18;98956.03;5075167;28;20053;-79
2020/12/08 10:33:47;;;;;;;25.70;15.35;;;;;;;3.10;84.66;98949.59;5075362;28;20052;-78
2020/12/08 10:36:13;;;;;;;20.08;13.95;;;;;;;3.15;82.08;98953.78;5075115;28;20430;-79
2020/12/08 10:38:40;;;;;;;21.00;14.77;;;;;;;3.15;83.36;98959.06;5076538;28;20056;-78
2020/12/08 10:41:06;;;;;;;20.48;14.20;;;;;;;3.03;82.48;98947.31;5076234;28;20438;-80
2020/12/08 10:43:33;;;;;;;20.13;13.90;;;;;;;3.08;82.38;98964.66;5076327;28;20051;-77
2020/12/08 10:46:03;;;;;;;19.17;13.52;;;;;;;3.07;83.26;98960.31;5075331;28;20083;-79
2020/12/08 10:48:30;;;;;;;19.48;13.88;;;;;;;3.04;83.07;98960.44;5076232;28;20056;-80
2020/12/08 10:50:57;;;;;;;23.42;14.20;;;;;;;3.08;84.39;98959.38;5075813;28;20131;-78
2020/12/08 10:53:23;;;;;;;19.38;13.45;;;;;;;3.06;83.77;98945.38;5075441;28;20063;-79
2020/12/08 10:55:49;;;;;;;19.27;13.77;;;;;;;3.12;82.28;98946.88;5076344;28;20345;-78
2020/12/08 10:58:17;;;;;;;20.33;12.63;;;;;;;3.18;81.70;98943.09;5076165;28;20377;-78
2020/12/08 11:00:43;;;;;;;17.65;12.10;;;;;;;3.14;81.28;98944.19;5075434;28;20052;-78
2020/12/08 11:03:10;;;;;;;20.38;13.98;;;;;;;3.16;81.84;98934.41;5075162;28;20044;-81
2020/12/08 11:05:37;;;;;;;22.45;13.13;;;;;;;3.14;81.86;98928.38;5073696;28;21527;-75
2020/12/08 11:08:03;;;;;;;16.98;12.25;;;;;;;3.14;81.32;98917.81;5076075;28;20051;-78
2020/12/08 11:10:29;;;;;;;20.48;13.23;;;;;;;3.37;81.31;98943.84;5074623;28;20052;-75
2020/12/08 11:12:55;;;;;;;18.00;12.52;;;;;;;3.45;80.89;98937.34;5074712;28;20052;-76
2020/12/08 11:15:22;;;;;;;18.88;12.88;;;;;;;3.44;80.29;98941.78;5053990;28;20041;-79
2020/12/08 11:17:48;;;;;;;20.83;13.30;;;;;;;3.43;80.89;98947.97;5054961;28;20449;-79
2020/12/08 11:20:14;;;;;;;19.02;13.20;;;;;;;3.43;81.37;98952.41;5054725;28;20373;-78